createdAt,value
2022-12-19T00:01:06.829Z,-5.06
2022-12-19T00:03:33.599Z,-5.02
2022-12-19T00:06:06.171Z,-4.95
2022-12-19T00:08:32.689Z,-5.00
2022-12-19T00:11:00.335Z,-4.99
2022-12-19T00:13:27.455Z,-4.97
2022-12-19T00:16:00.423Z,-5.04
2022-12-19T00:18:26.873Z,-5.08
2022-12-19T00:21:00.461Z,-4.90
2022-12-19T00:23:27.944Z,-4.83
2022-12-19T00:25:54.311Z,-4.83
2022-12-19T00:28:21.921Z,-4.90
2022-12-19T00:30:48.244Z,-5.04
2022-12-19T00:33:14.560Z,-4.86
2022-12-19T00:35:40.945Z,-5.00
2022-12-19T00:38:07.271Z,-4.78
2022-12-19T00:40:33.641Z,-4.92
2022-12-19T00:43:00.113Z,-4.76
2022-12-19T00:45:27.024Z,-4.66
2022-12-19T00:47:55.570Z,-4.79
2022-12-19T00:50:21.990Z,-4.70
2022-12-19T00:52:48.388Z,-4.75
2022-12-19T00:55:18.689Z,-4.56
2022-12-19T00:57:46.499Z,-4.59
2022-12-19T01:00:13.122Z,-4.71
2022-12-19T01:02:39.678Z,-4.57
2022-12-19T01:05:06.399Z,-4.58
2022-12-19T01:07:32.743Z,-4.79
2022-12-19T01:09:59.147Z,-4.72
2022-12-19T01:12:44.189Z,-4.66
2022-12-19T01:15:10.710Z,-4.73
2022-12-19T01:17:44.260Z,-4.58
2022-12-19T01:20:11.755Z,-4.59
2022-12-19T01:22:38.135Z,-4.57
2022-12-19T01:25:05.258Z,-4.62
2022-12-19T01:27:31.599Z,-4.66
2022-12-19T01:29:58.022Z,-4.55
2022-12-19T01:32:24.445Z,-4.62
2022-12-19T01:34:50.871Z,-4.64
2022-12-19T01:37:22.671Z,-4.57
2022-12-19T01:39:49.148Z,-4.66
2022-12-19T01:42:23.345Z,-4.71
2022-12-19T01:45:05.442Z,-4.66
2022-12-19T01:47:33.401Z,-4.69
2022-12-19T01:50:01.556Z,-4.57
2022-12-19T01:52:28.034Z,-4.50
2022-12-19T01:54:54.351Z,-4.57
2022-12-19T01:57:21.346Z,-4.53
2022-12-19T01:59:56.730Z,-4.44
2022-12-19T02:02:28.167Z,-4.49
2022-12-19T02:04:54.935Z,-4.62
2022-12-19T02:07:25.472Z,-4.60
2022-12-19T02:09:57.229Z,-4.53
2022-12-19T02:12:29.198Z,-4.60
2022-12-19T02:15:02.628Z,-4.69
2022-12-19T02:17:52.803Z,-4.56
2022-12-19T02:20:38.177Z,-4.48
2022-12-19T02:23:26.030Z,-4.59
2022-12-19T02:25:58.493Z,-4.66
2022-12-19T02:28:32.828Z,-4.71
2022-12-19T02:31:02.152Z,-4.49
2022-12-19T02:33:46.284Z,-4.49
2022-12-19T02:36:18.675Z,-4.65
2022-12-19T02:38:57.577Z,-4.76
2022-12-19T02:41:29.368Z,-4.58
2022-12-19T02:43:58.918Z,-4.64
2022-12-19T02:46:26.537Z,-4.66
2022-12-19T02:48:53.629Z,-4.65
2022-12-19T02:51:20.076Z,-4.64
2022-12-19T02:53:46.545Z,-4.65
2022-12-19T02:56:20.304Z,-4.77
2022-12-19T02:58:52.719Z,-4.98
2022-12-19T03:01:25.825Z,-4.78
2022-12-19T03:03:53.418Z,-4.75
2022-12-19T03:06:19.819Z,-4.69
2022-12-19T03:08:55.542Z,-4.70
2022-12-19T03:11:22.917Z,-4.67
2022-12-19T03:14:18.697Z,-4.50
2022-12-19T03:16:45.365Z,-4.49
2022-12-19T03:19:15.735Z,-4.54
2022-12-19T03:21:46.661Z,-4.66
2022-12-19T03:24:13.642Z,-4.61
2022-12-19T03:26:57.836Z,-4.57
2022-12-19T03:29:30.355Z,-4.71
2022-12-19T03:31:57.902Z,-4.49
2022-12-19T03:34:38.834Z,-4.53
2022-12-19T03:37:06.136Z,-4.50
2022-12-19T03:39:35.013Z,-4.56
2022-12-19T03:42:21.681Z,-4.69
2022-12-19T03:44:50.087Z,-4.46
2022-12-19T03:47:16.612Z,-4.54
2022-12-19T03:49:43.249Z,-4.55
2022-12-19T03:52:12.743Z,-4.74
2022-12-19T03:54:40.423Z,-4.64
2022-12-19T03:57:09.562Z,-4.54
2022-12-19T03:59:48.214Z,-4.47
2022-12-19T04:02:16.417Z,-4.56
2022-12-19T04:04:44.917Z,-4.44
2022-12-19T04:07:12.763Z,-4.42
2022-12-19T04:09:41.036Z,-4.43
2022-12-19T04:12:10.204Z,-4.47
2022-12-19T04:14:37.825Z,-4.40
2022-12-19T04:17:15.604Z,-4.27
2022-12-19T04:19:49.800Z,-4.39
2022-12-19T04:22:31.852Z,-4.46
2022-12-19T04:24:59.730Z,-4.43
2022-12-19T04:27:27.133Z,-4.43
2022-12-19T04:29:55.925Z,-4.28
2022-12-19T04:32:23.553Z,-4.28
2022-12-19T04:34:49.892Z,-4.20
2022-12-19T04:37:16.732Z,-4.13
2022-12-19T04:39:43.117Z,-4.29
2022-12-19T04:42:09.711Z,-4.34
2022-12-19T04:44:36.079Z,-4.22
2022-12-19T04:47:02.394Z,-4.14
2022-12-19T04:49:28.746Z,-4.19
2022-12-19T04:51:55.134Z,-4.10
2022-12-19T04:54:22.179Z,-4.24
2022-12-19T04:56:48.616Z,-4.17
2022-12-19T04:59:15.057Z,-4.21
2022-12-19T05:01:41.566Z,-4.14
2022-12-19T05:04:07.965Z,-4.15
2022-12-19T05:06:34.305Z,-4.11
2022-12-19T05:09:00.631Z,-4.14
2022-12-19T05:11:27.000Z,-4.24
2022-12-19T05:13:53.337Z,-4.17
2022-12-19T05:16:19.755Z,-4.18
2022-12-19T05:18:46.259Z,-4.35
2022-12-19T05:21:12.935Z,-4.41
2022-12-19T05:23:39.352Z,-4.10
2022-12-19T05:26:06.397Z,-4.25
2022-12-19T05:28:32.708Z,-4.24
2022-12-19T05:31:06.316Z,-4.23
2022-12-19T05:33:32.693Z,-4.47
2022-12-19T05:35:59.136Z,-4.47
2022-12-19T05:38:25.684Z,-4.31
2022-12-19T05:40:52.074Z,-4.38
2022-12-19T05:43:18.396Z,-4.25
2022-12-19T05:45:44.719Z,-4.33
2022-12-19T05:48:11.113Z,-4.19
2022-12-19T05:50:37.443Z,-4.28
2022-12-19T05:53:03.797Z,-4.12
2022-12-19T05:55:30.256Z,-4.18
2022-12-19T05:57:56.602Z,-4.06
2022-12-19T06:00:22.939Z,-4.11
2022-12-19T06:02:49.483Z,-4.08
2022-12-19T06:05:17.135Z,-3.91
2022-12-19T06:07:43.473Z,-4.02
2022-12-19T06:10:09.847Z,-3.97
2022-12-19T06:12:36.247Z,-3.97
2022-12-19T06:15:02.573Z,-3.96
2022-12-19T06:17:28.877Z,-3.99
2022-12-19T06:19:55.173Z,-3.94
2022-12-19T06:22:21.564Z,-4.08
2022-12-19T06:24:47.873Z,-3.90
2022-12-19T06:27:14.236Z,-3.81
2022-12-19T06:29:40.598Z,-3.85
2022-12-19T06:32:06.947Z,-3.98
2022-12-19T06:35:02.850Z,-3.81
2022-12-19T06:37:21.457Z,-3.79
2022-12-19T06:39:47.802Z,-3.71
2022-12-19T06:42:23.308Z,-3.77
2022-12-19T06:44:54.114Z,-3.78
2022-12-19T06:47:21.528Z,-3.59
2022-12-19T06:49:48.670Z,-3.72
2022-12-19T06:52:15.428Z,-3.64
2022-12-19T06:54:42.462Z,-3.57
2022-12-19T06:57:08.979Z,-3.60
2022-12-19T06:59:35.352Z,-3.55
2022-12-19T07:02:24.856Z,-3.48
2022-12-19T07:04:55.193Z,-3.62
2022-12-19T07:07:24.649Z,-3.45
2022-12-19T07:09:51.172Z,-3.51
2022-12-19T07:12:17.666Z,-3.44
2022-12-19T07:14:46.730Z,-3.47
2022-12-19T07:17:15.495Z,-3.51
2022-12-19T07:19:42.223Z,-3.43
2022-12-19T07:22:09.208Z,-3.41
2022-12-19T07:24:36.154Z,-3.31
2022-12-19T07:27:03.059Z,-3.32
2022-12-19T07:29:29.487Z,-3.39
2022-12-19T07:31:56.152Z,-3.38
2022-12-19T07:34:22.559Z,-3.44
2022-12-19T07:36:49.018Z,-3.41
2022-12-19T07:39:15.396Z,-3.48
2022-12-19T07:41:41.813Z,-3.22
2022-12-19T07:44:08.672Z,-3.29
2022-12-19T07:46:35.395Z,-3.24
2022-12-19T07:49:01.816Z,-3.36
2022-12-19T07:51:28.303Z,-3.26
2022-12-19T07:53:54.631Z,-3.36
2022-12-19T07:56:20.957Z,-3.16
2022-12-19T07:58:47.348Z,-3.04
2022-12-19T08:01:13.890Z,-2.97
2022-12-19T08:03:40.335Z,-2.93
2022-12-19T08:06:07.168Z,-2.90
2022-12-19T08:08:34.157Z,-2.86
2022-12-19T08:11:11.321Z,-2.96
2022-12-19T08:13:42.037Z,-2.94
2022-12-19T08:16:12.589Z,-2.82
2022-12-19T08:18:39.013Z,-2.74
2022-12-19T08:21:07.173Z,-2.79
2022-12-19T08:23:33.610Z,-2.86
2022-12-19T08:26:01.223Z,-2.88
2022-12-19T08:28:27.777Z,-2.76
2022-12-19T08:30:54.195Z,-2.81
2022-12-19T08:33:20.542Z,-2.62
2022-12-19T08:35:46.902Z,-2.39
2022-12-19T08:38:13.369Z,-2.44
2022-12-19T08:40:44.330Z,-2.29
2022-12-19T08:43:13.497Z,-2.38
2022-12-19T08:45:39.891Z,-2.51
2022-12-19T08:48:07.454Z,-2.58
2022-12-19T08:50:33.776Z,-2.47
2022-12-19T08:53:00.224Z,-2.28
2022-12-19T08:55:27.286Z,-2.31
2022-12-19T08:57:55.737Z,-2.40
2022-12-19T09:00:22.282Z,-2.40
2022-12-19T09:02:50.168Z,-2.29
2022-12-19T09:06:03.541Z,-2.14
2022-12-19T09:08:03.125Z,-2.25
2022-12-19T09:10:31.216Z,-2.10
2022-12-19T09:12:58.153Z,-2.08
2022-12-19T09:15:24.607Z,-2.12
2022-12-19T09:17:50.941Z,-2.09
2022-12-19T09:20:23.056Z,-1.95
2022-12-19T09:22:49.880Z,-2.07
2022-12-19T09:25:16.309Z,-2.22
2022-12-19T09:28:25.128Z,-2.18
2022-12-19T09:30:29.349Z,-1.93
2022-12-19T09:32:57.391Z,-1.95
2022-12-19T09:35:28.515Z,-1.78
2022-12-19T09:38:00.292Z,-1.81
2022-12-19T09:40:28.872Z,-1.93
2022-12-19T09:43:09.569Z,-1.82
2022-12-19T09:45:52.824Z,-1.77
2022-12-19T09:48:24.004Z,-1.72
2022-12-19T09:51:09.381Z,-1.68
2022-12-19T09:53:56.104Z,-1.51
2022-12-19T09:56:23.773Z,-1.54
2022-12-19T09:58:54.251Z,-1.57
2022-12-19T10:01:24.437Z,-1.41
2022-12-19T10:04:03.436Z,-1.45
2022-12-19T10:07:20.360Z,-1.21
2022-12-19T10:11:16.375Z,-1.31
2022-12-19T10:12:50.814Z,-1.22
2022-12-19T10:15:25.991Z,-1.18
2022-12-19T10:17:59.918Z,-1.17
2022-12-19T10:20:38.721Z,-1.08
2022-12-19T10:23:18.581Z,-0.88
2022-12-19T10:25:59.087Z,-0.94
2022-12-19T10:28:39.130Z,-0.89
2022-12-19T10:31:21.520Z,-0.94
2022-12-19T10:33:58.255Z,-0.79
2022-12-19T10:36:48.666Z,-0.74
2022-12-19T10:39:25.790Z,-0.74
2022-12-19T10:41:56.643Z,-0.46
2022-12-19T10:44:29.696Z,-0.50
2022-12-19T10:46:56.162Z,-0.48
2022-12-19T10:49:25.170Z,-0.49
2022-12-19T10:52:02.529Z,-0.48
2022-12-19T10:54:38.519Z,-0.42
2022-12-19T10:57:24.311Z,-0.30
2022-12-19T10:59:54.847Z,-0.35
2022-12-19T11:02:44.612Z,-0.51
2022-12-19T11:05:33.149Z,-0.34
2022-12-19T11:07:59.568Z,-0.33
2022-12-19T11:12:01.922Z,-0.18
2022-12-19T11:19:13.301Z,-0.25
2022-12-19T11:25:14.723Z,-0.32
2022-12-19T11:29:26.508Z,-0.47
2022-12-19T11:29:32.462Z,-0.29
2022-12-19T11:29:54.647Z,-0.47
2022-12-19T11:30:46.257Z,-0.49
2022-12-19T11:31:51.264Z,-0.48
2022-12-19T11:33:10.432Z,-0.52
2022-12-19T11:35:48.045Z,-0.43
2022-12-19T11:38:41.064Z,-0.25
2022-12-19T11:41:13.111Z,-0.37
2022-12-19T11:43:58.999Z,-0.43
2022-12-19T11:46:45.175Z,-0.48
2022-12-19T11:49:11.762Z,-0.26
2022-12-19T11:51:57.608Z,-0.37
2022-12-19T11:54:33.108Z,-0.33
2022-12-19T11:56:59.889Z,-0.27
2022-12-19T11:59:36.309Z,-0.34
2022-12-19T12:02:08.947Z,-0.46
2022-12-19T12:04:35.503Z,-0.43
2022-12-19T12:07:06.635Z,-0.27
2022-12-19T12:13:09.954Z,-0.39
2022-12-19T12:19:40.597Z,-0.47
2022-12-19T12:30:18.985Z,-0.47
2022-12-19T12:31:31.685Z,-0.29
2022-12-19T12:31:40.239Z,-0.34
2022-12-19T12:31:47.723Z,-0.22
2022-12-19T12:35:51.829Z,-0.36
2022-12-19T12:44:07.926Z,-0.40
2022-12-19T12:46:42.014Z,-0.34
2022-12-19T12:49:20.834Z,-0.32
2022-12-19T12:51:47.787Z,-0.37
2022-12-19T12:54:15.270Z,-0.41
2022-12-19T12:57:06.629Z,-0.39
2022-12-19T12:59:35.885Z,-0.37
2022-12-19T13:02:40.208Z,-0.31
2022-12-19T13:05:35.701Z,-0.28
2022-12-19T13:08:02.372Z,-0.28
2022-12-19T13:16:48.812Z,-0.24
2022-12-19T13:19:27.886Z,-0.28
2022-12-19T13:22:18.298Z,-0.41
2022-12-19T13:24:44.848Z,-0.57
2022-12-19T13:27:20.099Z,-0.62
2022-12-19T13:30:20.733Z,-0.32
2022-12-19T13:32:51.668Z,-0.42
2022-12-19T13:39:50.173Z,-0.43
2022-12-19T13:44:40.133Z,-0.31
2022-12-19T13:47:21.978Z,-0.19
2022-12-19T13:49:50.864Z,-0.31
2022-12-19T14:02:20.204Z,-0.16
2022-12-19T14:04:50.139Z,-0.06
2022-12-19T14:28:21.001Z,0.09
2022-12-19T14:28:40.345Z,-0.03
2022-12-19T14:53:33.959Z,-0.03
2022-12-19T14:58:51.374Z,0.18
2022-12-19T15:01:07.969Z,0.24
2022-12-19T15:03:30.388Z,0.03
2022-12-19T15:07:06.813Z,0.11
2022-12-19T15:11:00.432Z,0.16
2022-12-19T15:14:57.778Z,0.20
2022-12-19T15:15:52.578Z,0.16
2022-12-19T15:18:27.035Z,0.26
2022-12-19T15:21:16.127Z,0.43
2022-12-19T15:37:26.569Z,0.63
2022-12-19T15:39:53.300Z,0.58
2022-12-19T15:42:56.025Z,0.49
2022-12-19T15:45:25.655Z,0.64
2022-12-19T15:51:35.700Z,0.72
2022-12-19T15:54:30.151Z,0.83
2022-12-19T15:56:51.532Z,0.54
2022-12-19T15:59:26.660Z,0.80
2022-12-19T16:01:56.280Z,0.78
2022-12-19T16:04:23.886Z,0.78
2022-12-19T16:06:50.580Z,0.90
2022-12-19T16:09:27.208Z,0.91
2022-12-19T16:11:58.155Z,0.79
2022-12-19T16:14:25.228Z,0.70
2022-12-19T16:25:55.829Z,0.95
2022-12-19T16:28:34.261Z,1.05
2022-12-19T16:31:13.803Z,1.13
2022-12-19T16:33:40.373Z,1.10
2022-12-19T16:36:07.579Z,1.14
2022-12-19T16:38:34.796Z,0.89
2022-12-19T16:41:01.847Z,0.99
2022-12-19T16:43:32.258Z,1.03
2022-12-19T16:46:01.608Z,1.18
2022-12-19T16:48:30.241Z,1.12
2022-12-19T16:50:57.898Z,1.13
2022-12-19T16:53:27.495Z,1.15
2022-12-19T16:55:55.717Z,1.06
2022-12-19T16:58:24.507Z,1.19
2022-12-19T17:00:52.664Z,1.32
2022-12-19T17:03:28.495Z,1.40
2022-12-19T17:05:55.431Z,1.35
2022-12-19T17:08:23.775Z,1.38
2022-12-19T17:10:53.526Z,1.39
2022-12-19T17:13:21.190Z,1.36
2022-12-19T17:15:54.316Z,1.46
2022-12-19T17:22:20.014Z,1.42
2022-12-19T17:24:47.499Z,1.30
2022-12-19T17:27:18.526Z,1.14
2022-12-19T17:29:47.289Z,1.36
2022-12-19T17:32:23.599Z,1.38
2022-12-19T17:34:56.188Z,1.39
2022-12-19T17:37:36.029Z,1.47
2022-12-19T17:40:04.152Z,1.50
2022-12-19T17:42:37.034Z,1.28
2022-12-19T17:45:08.111Z,1.45
2022-12-19T17:47:43.677Z,1.49
2022-12-19T17:50:23.782Z,1.56
2022-12-19T17:52:53.627Z,1.60
2022-12-19T17:55:25.088Z,1.34
2022-12-19T17:57:54.235Z,1.40
2022-12-19T18:00:28.417Z,1.43
2022-12-19T18:03:06.420Z,1.51
2022-12-19T18:05:35.401Z,1.56
2022-12-19T18:08:02.154Z,1.52
2022-12-19T18:10:30.342Z,1.47
2022-12-19T18:12:57.308Z,1.53
2022-12-19T18:15:27.559Z,1.52
2022-12-19T18:17:56.472Z,1.50
2022-12-19T18:20:29.417Z,1.55
2022-12-19T18:22:59.758Z,1.63
2022-12-19T18:25:27.823Z,1.64
2022-12-19T18:28:04.232Z,1.88
2022-12-19T18:30:30.671Z,1.78
2022-12-19T18:32:59.658Z,1.63
2022-12-19T18:35:34.975Z,1.77
2022-12-19T18:38:07.044Z,1.86
2022-12-19T18:40:34.810Z,1.85
2022-12-19T18:43:01.424Z,1.96
2022-12-19T18:45:54.019Z,1.40
2022-12-19T18:48:27.802Z,1.86
2022-12-19T18:50:55.056Z,1.90
2022-12-19T18:53:37.216Z,1.95
2022-12-19T18:56:05.539Z,1.72
2022-12-19T18:58:32.833Z,1.82
2022-12-19T19:01:04.989Z,1.60
2022-12-19T19:03:41.574Z,1.81
2022-12-19T19:06:18.728Z,2.03
2022-12-19T19:08:49.972Z,1.85
2022-12-19T19:11:23.624Z,2.00
2022-12-19T19:13:58.053Z,2.15
2022-12-19T19:16:25.766Z,2.10
2022-12-19T19:21:56.843Z,1.93
2022-12-19T19:24:28.200Z,2.10
2022-12-19T19:27:03.647Z,1.89
2022-12-19T19:29:38.459Z,1.89
2022-12-19T19:32:05.400Z,2.14
2022-12-19T19:34:34.545Z,2.05
2022-12-19T19:40:24.960Z,2.09
2022-12-19T19:43:23.251Z,2.07
2022-12-19T19:45:50.500Z,2.14
2022-12-19T19:48:24.377Z,2.01
2022-12-19T19:54:30.513Z,1.89
2022-12-19T19:57:00.412Z,1.96
2022-12-19T20:26:27.151Z,1.79
2022-12-19T20:29:26.408Z,1.90
2022-12-19T20:32:15.084Z,1.85
2022-12-19T20:41:10.405Z,1.90
2022-12-19T20:44:24.133Z,2.01
2022-12-19T20:46:57.710Z,1.90
2022-12-19T20:49:35.112Z,2.03
2022-12-19T20:59:05.276Z,1.80
2022-12-19T21:01:39.066Z,1.71
2022-12-19T21:04:14.598Z,1.63
2022-12-19T21:10:06.103Z,1.74
2022-12-19T21:12:32.624Z,1.43
2022-12-19T21:15:10.505Z,1.63
2022-12-19T21:17:44.563Z,1.52
2022-12-19T21:20:34.352Z,1.73
2022-12-19T21:27:14.498Z,1.79
2022-12-19T21:39:37.916Z,1.53
2022-12-19T21:48:39.250Z,1.43
2022-12-19T21:51:06.321Z,1.44
2022-12-19T21:53:39.580Z,1.37
2022-12-19T21:59:09.926Z,1.58
2022-12-19T22:01:36.620Z,1.50
2022-12-19T22:04:06.344Z,1.64
2022-12-19T22:06:35.504Z,1.72
2022-12-19T22:09:03.958Z,1.69
2022-12-19T22:11:31.329Z,1.59
2022-12-19T22:14:01.595Z,1.75
2022-12-19T22:16:41.950Z,1.55
2022-12-19T22:19:20.078Z,1.73
2022-12-19T22:21:56.445Z,1.66
2022-12-19T22:24:29.304Z,1.79
2022-12-19T22:30:37.732Z,1.76
2022-12-19T22:33:04.144Z,1.58
2022-12-19T22:35:34.396Z,1.49
2022-12-19T22:38:00.770Z,1.56
2022-12-19T22:40:38.769Z,1.85
2022-12-19T22:43:05.491Z,1.95
2022-12-19T22:48:38.404Z,1.93
2022-12-19T22:51:05.548Z,2.03
2022-12-19T22:53:41.952Z,2.08
2022-12-19T22:56:13.370Z,2.03
2022-12-19T22:58:53.628Z,2.00
2022-12-19T23:01:52.541Z,1.94
2022-12-19T23:04:20.482Z,2.09
2022-12-19T23:06:48.760Z,2.04
2022-12-19T23:09:21.096Z,1.85
2022-12-19T23:11:48.941Z,1.80
2022-12-19T23:14:18.807Z,1.94
2022-12-19T23:16:53.637Z,1.89
2022-12-19T23:19:20.346Z,1.97
2022-12-19T23:21:47.054Z,1.94
2022-12-19T23:24:13.657Z,2.13
2022-12-19T23:26:40.393Z,2.15
2022-12-19T23:29:08.619Z,2.24
2022-12-19T23:31:35.266Z,2.26
2022-12-19T23:34:05.198Z,2.13
2022-12-19T23:37:08.957Z,2.28
2022-12-19T23:39:18.253Z,2.21
2022-12-19T23:41:44.916Z,2.31
2022-12-19T23:44:17.878Z,2.32
2022-12-19T23:46:44.388Z,2.12
2022-12-19T23:49:11.013Z,2.08
2022-12-19T23:51:37.638Z,2.08
2022-12-19T23:54:09.018Z,2.00
2022-12-19T23:56:53.834Z,2.08
2022-12-19T23:59:20.943Z,2.23
